Time;durP1;ratioP1;P1;durP2;ratioP2;P2;SDS_P1;SDS_P2;PMS_P1;PMS_P2;Temp;Humidity;BMP_temperature;BMP_pressure;BME280_temperature;BME280_humidity;BME280_pressure;Samples;Min_cycle;Max_cycle;Signal;HPM_P1;HPM_P2
2023/03/18 00:00:08;;;;;;;20.03;9.37;;;7.20;80.30;;;;;;5066541;28;20635;-61
2023/03/18 00:02:36;;;;;;;18.40;8.67;;;7.20;80.30;;;;;;5089371;28;20203;-62
2023/03/18 00:05:03;;;;;;;21.13;8.93;;;7.20;80.30;;;;;;5083956;28;20188;-61
2023/03/18 00:07:30;;;;;;;37.27;10.90;;;7.20;80.30;;;;;;5089280;28;20287;-62
2023/03/18 00:09:58;;;;;;;51.97;15.67;;;7.20;80.20;;;;;;5088576;28;20538;-61
2023/03/18 00:12:26;;;;;;;46.97;16.27;;;7.20;80.00;;;;;;5084165;28;20689;-61
2023/03/18 00:14:53;;;;;;;33.63;14.53;;;7.20;79.70;;;;;;5087852;28;20229;-61
2023/03/18 00:17:21;;;;;;;29.97;12.27;;;7.20;79.60;;;;;;5089530;28;20678;-61
2023/03/18 00:19:49;;;;;;;31.67;12.57;;;7.20;79.60;;;;;;5082496;28;20189;-62
2023/03/18 00:22:16;;;;;;;29.27;12.90;;;7.20;79.50;;;;;;5084250;28;20203;-61
2023/03/18 00:24:43;;;;;;;25.33;11.53;;;7.10;79.50;;;;;;5089329;28;20184;-61
2023/03/18 00:27:10;;;;;;;22.23;9.37;;;7.10;79.60;;;;;;5089660;28;20565;-61
2023/03/18 00:29:40;;;;;;;20.70;10.13;;;7.10;79.70;;;;;;5060242;28;20203;-60
2023/03/18 00:32:09;;;;;;;20.80;9.77;;;7.10;79.60;;;;;;5071117;28;20296;-61
2023/03/18 00:34:36;;;;;;;18.47;9.27;;;7.10;79.40;;;;;;5085214;28;20218;-61
2023/03/18 00:37:03;;;;;;;15.93;8.60;;;7.10;79.50;;;;;;5087196;28;20577;-60
2023/03/18 00:39:31;;;;;;;14.30;8.07;;;7.10;79.50;;;;;;5071104;28;20294;-61
2023/03/18 00:42:00;;;;;;;16.73;7.83;;;7.10;79.30;;;;;;5088210;28;20196;-61
2023/03/18 00:44:27;;;;;;;12.97;7.20;;;7.10;79.30;;;;;;5090855;28;20279;-61
2023/03/18 00:46:56;;;;;;;16.23;8.30;;;7.10;79.20;;;;;;5092940;28;20229;-61
2023/03/18 00:49:23;;;;;;;17.13;7.30;;;7.10;79.10;;;;;;5092603;28;20307;-61
2023/03/18 00:51:50;;;;;;;17.43;8.30;;;7.10;79.10;;;;;;5091423;28;20226;-61
2023/03/18 00:54:19;;;;;;;16.57;7.73;;;7.10;79.10;;;;;;5074135;28;20250;-61
2023/03/18 00:56:49;;;;;;;15.97;7.20;;;7.10;79.20;;;;;;5091779;28;20204;-61
2023/03/18 00:59:17;;;;;;;18.60;8.70;;;7.10;79.30;;;;;;5093630;28;20217;-62
2023/03/18 01:01:44;;;;;;;15.60;7.73;;;7.10;79.30;;;;;;5071547;28;20248;-61
2023/03/18 01:04:13;;;;;;;16.93;7.60;;;7.10;79.50;;;;;;5072318;28;20289;-61
2023/03/18 01:06:40;;;;;;;19.47;7.47;;;7.10;79.40;;;;;;5071672;28;20196;-62
2023/03/18 01:09:10;;;;;;;16.67;8.30;;;7.10;79.40;;;;;;5072390;28;20216;-61
2023/03/18 01:11:39;;;;;;;17.90;7.77;;;7.10;79.50;;;;;;5075350;28;20306;-61
2023/03/18 01:14:06;;;;;;;15.40;7.50;;;7.10;79.50;;;;;;5091270;28;20204;-61
2023/03/18 01:16:33;;;;;;;19.67;8.60;;;7.00;79.60;;;;;;5091966;28;20195;-61
2023/03/18 01:19:01;;;;;;;19.37;8.80;;;7.10;79.70;;;;;;5072952;28;20202;-61
2023/03/18 01:21:29;;;;;;;13.53;7.07;;;7.00;79.70;;;;;;5073090;28;20219;-61
2023/03/18 01:24:00;;;;;;;15.77;8.20;;;7.00;79.80;;;;;;5083147;28;20304;-62
2023/03/18 01:26:28;;;;;;;21.00;8.87;;;7.00;79.90;;;;;;5074811;28;20211;-61
2023/03/18 01:28:58;;;;;;;15.67;8.40;;;6.90;79.90;;;;;;5074547;28;20198;-62
2023/03/18 01:31:25;;;;;;;15.80;6.93;;;6.90;80.10;;;;;;5089975;28;20204;-61
2023/03/18 01:33:56;;;;;;;17.23;8.47;;;6.90;80.10;;;;;;5071136;28;20243;-61
2023/03/18 01:36:23;;;;;;;16.67;7.47;;;6.80;80.20;;;;;;5068936;28;20220;-62
2023/03/18 01:39:05;;;;;;;17.07;7.60;;;6.80;80.30;;;;;;5073288;28;20216;-62
2023/03/18 01:41:32;;;;;;;16.10;8.07;;;6.70;80.30;;;;;;5088726;28;20813;-61
2023/03/18 01:44:00;;;;;;;14.47;7.90;;;6.70;80.50;;;;;;5087017;28;20452;-61
2023/03/18 01:46:36;;;;;;;15.97;8.10;;;6.70;80.60;;;;;;5072877;28;20206;-61
2023/03/18 01:49:09;;;;;;;19.70;8.20;;;6.70;80.70;;;;;;5069722;28;20968;-61
2023/03/18 01:51:38;;;;;;;16.53;8.13;;;6.70;80.80;;;;;;5072540;28;20206;-61
2023/03/18 01:54:08;;;;;;;16.13;7.73;;;6.70;80.90;;;;;;5086929;28;20617;-62
2023/03/18 01:56:37;;;;;;;15.17;8.00;;;6.70;80.90;;;;;;5074269;28;20227;-61
2023/03/18 01:59:06;;;;;;;24.67;7.90;;;6.60;80.90;;;;;;5069580;28;20418;-62
2023/03/18 02:01:40;;;;;;;18.07;8.20;;;6.70;81.00;;;;;;5085548;28;20199;-60
2023/03/18 02:04:10;;;;;;;18.10;7.67;;;6.70;80.90;;;;;;5057803;28;20574;-61
2023/03/18 02:06:41;;;;;;;15.97;7.33;;;6.60;80.80;;;;;;5071359;28;20242;-61
2023/03/18 02:09:11;;;;;;;15.97;8.00;;;6.60;81.00;;;;;;5073378;28;20702;-61
2023/03/18 02:11:41;;;;;;;15.00;7.50;;;6.60;81.10;;;;;;5091890;28;20187;-61
2023/03/18 02:14:13;;;;;;;19.57;8.50;;;6.60;81.20;;;;;;5072163;28;20193;-61
2023/03/18 02:16:44;;;;;;;21.17;8.23;;;6.60;81.20;;;;;;5087188;28;20210;-61
2023/03/18 02:19:32;;;;;;;16.37;8.03;;;6.50;81.10;;;;;;5070640;28;20205;-61
2023/03/18 02:22:08;;;;;;;17.50;8.83;;;6.50;81.30;;;;;;5073103;28;20206;-62
2023/03/18 02:24:48;;;;;;;16.90;7.80;;;6.50;81.40;;;;;;5072344;28;20205;-61
2023/03/18 02:27:20;;;;;;;19.00;8.77;;;6.50;81.40;;;;;;5067987;28;20198;-61
2023/03/18 02:29:49;;;;;;;17.73;7.90;;;6.40;81.50;;;;;;5072855;28;20273;-61
2023/03/18 02:32:21;;;;;;;16.90;8.50;;;6.40;81.70;;;;;;5064078;28;20234;-61
2023/03/18 02:34:49;;;;;;;17.37;8.00;;;6.40;81.70;;;;;;5089533;28;20198;-61
2023/03/18 02:37:16;;;;;;;18.50;8.20;;;6.40;81.70;;;;;;5072035;28;20194;-61
2023/03/18 02:39:44;;;;;;;19.30;8.57;;;6.40;81.80;;;;;;5071724;28;20212;-61
2023/03/18 02:42:13;;;;;;;15.23;7.77;;;6.40;81.80;;;;;;5070954;28;20202;-61
2023/03/18 02:44:47;;;;;;;14.97;7.97;;;6.30;81.80;;;;;;5067623;28;20220;-62
2023/03/18 02:47:33;;;;;;;17.33;8.40;;;6.40;82.00;;;;;;5090887;28;20206;-61
2023/03/18 02:50:01;;;;;;;17.73;8.13;;;6.30;81.90;;;;;;5070071;28;20544;-61
2023/03/18 02:52:29;;;;;;;14.93;7.97;;;6.30;82.10;;;;;;5071246;28;20305;-61
2023/03/18 02:54:58;;;;;;;13.13;7.57;;;6.30;82.20;;;;;;5056692;28;20234;-61
2023/03/18 02:57:26;;;;;;;17.00;8.27;;;6.30;82.20;;;;;;5056143;28;20666;-61
2023/03/18 02:59:54;;;;;;;17.57;8.07;;;6.30;82.40;;;;;;5045604;28;20202;-61
2023/03/18 03:02:22;;;;;;;17.97;8.63;;;6.30;82.40;;;;;;5041005;28;20670;-61
2023/03/18 03:04:49;;;;;;;17.80;8.47;;;6.20;82.30;;;;;;5047597;28;20207;-61
2023/03/18 03:07:18;;;;;;;20.67;8.80;;;6.20;82.30;;;;;;5048239;28;20212;-62
2023/03/18 03:09:50;;;;;;;16.53;7.87;;;6.10;82.40;;;;;;5048879;28;20265;-62
2023/03/18 03:12:19;;;;;;;13.90;7.27;;;6.20;82.50;;;;;;5038524;28;20268;-62
2023/03/18 03:14:51;;;;;;;18.97;8.27;;;6.10;82.50;;;;;;5045344;28;20212;-61
2023/03/18 03:17:20;;;;;;;16.00;8.23;;;6.10;82.50;;;;;;5035460;28;20227;-62
2023/03/18 03:19:48;;;;;;;13.73;7.90;;;6.10;82.40;;;;;;5074838;28;20280;-62
2023/03/18 03:22:16;;;;;;;17.57;8.70;;;6.10;82.50;;;;;;5049825;28;20199;-62
2023/03/18 03:24:43;;;;;;;15.60;8.30;;;6.00;82.60;;;;;;5050751;28;20209;-62
2023/03/18 03:27:13;;;;;;;16.37;7.83;;;6.00;82.70;;;;;;5049368;28;20207;-62
2023/03/18 03:29:41;;;;;;;14.53;7.50;;;5.90;82.80;;;;;;5047610;28;20348;-62
2023/03/18 03:32:08;;;;;;;17.03;8.03;;;5.90;83.00;;;;;;5038002;28;20264;-62
2023/03/18 03:34:36;;;;;;;14.43;7.50;;;5.90;83.00;;;;;;5059772;28;20210;-62
2023/03/18 03:37:04;;;;;;;16.67;7.53;;;5.90;83.10;;;;;;5039822;28;20568;-61
2023/03/18 03:39:31;;;;;;;24.57;12.10;;;5.80;83.00;;;;;;5050109;28;20210;-61
2023/03/18 03:41:59;;;;;;;32.23;16.57;;;5.80;83.00;;;;;;5040365;28;20194;-61
2023/03/18 03:44:26;;;;;;;38.40;19.37;;;5.80;83.10;;;;;;5049448;28;20198;-61
2023/03/18 03:46:53;;;;;;;39.43;21.70;;;5.80;83.00;;;;;;5035585;28;20193;-61
2023/03/18 03:49:23;;;;;;;40.40;20.77;;;5.80;83.10;;;;;;5040024;28;20235;-61
2023/03/18 03:51:51;;;;;;;34.40;17.90;;;5.80;83.20;;;;;;5045255;28;20202;-61
2023/03/18 03:54:19;;;;;;;21.33;11.70;;;5.80;83.30;;;;;;5053855;28;21434;-60
2023/03/18 03:56:47;;;;;;;20.03;10.23;;;5.80;83.40;;;;;;5083813;28;20209;-61
2023/03/18 03:59:15;;;;;;;27.30;13.73;;;5.70;83.50;;;;;;5082659;28;20208;-61
2023/03/18 04:02:12;;;;;;;20.23;11.03;;;5.80;83.70;;;;;;5087451;28;20201;-61
2023/03/18 04:04:40;;;;;;;18.97;9.53;;;5.70;83.70;;;;;;5069940;28;20192;-61
2023/03/18 04:07:10;;;;;;;14.60;8.13;;;5.80;83.90;;;;;;5070470;28;20200;-60
2023/03/18 04:09:38;;;;;;;19.23;9.47;;;5.80;83.80;;;;;;5086208;28;20277;-61
2023/03/18 04:12:06;;;;;;;15.50;7.87;;;5.80;83.80;;;;;;5062283;28;20204;-61
2023/03/18 04:14:34;;;;;;;15.57;7.43;;;5.90;83.70;;;;;;5103864;28;20200;-61
2023/03/18 04:17:01;;;;;;;14.53;7.13;;;5.90;83.70;;;;;;5094941;28;20229;-61
2023/03/18 04:19:33;;;;;;;17.60;7.83;;;5.80;83.60;;;;;;5073837;28;20669;-61
2023/03/18 04:22:01;;;;;;;14.27;7.17;;;5.80;83.70;;;;;;5075142;28;20192;-61
2023/03/18 04:24:30;;;;;;;14.80;7.30;;;5.80;83.80;;;;;;5079747;28;20205;-61
2023/03/18 04:26:57;;;;;;;14.27;7.37;;;5.80;83.90;;;;;;5075576;28;20199;-61
2023/03/18 04:29:24;;;;;;;17.20;7.90;;;5.80;83.90;;;;;;5092968;28;20277;-62
2023/03/18 04:31:52;;;;;;;18.97;8.30;;;5.80;84.70;;;;;;5074885;28;20209;-61
2023/03/18 04:34:21;;;;;;;15.63;7.53;;;5.80;84.10;;;;;;5090573;28;20260;-62
2023/03/18 04:36:48;;;;;;;16.33;8.20;;;5.70;84.10;;;;;;5063701;28;20223;-61
2023/03/18 04:39:15;;;;;;;19.23;7.93;;;5.70;84.30;;;;;;5093714;28;20204;-61
2023/03/18 04:41:44;;;;;;;16.23;8.43;;;5.70;84.30;;;;;;5093224;28;20220;-62
2023/03/18 04:44:12;;;;;;;18.93;8.03;;;5.60;84.40;;;;;;5074353;28;20211;-62
2023/03/18 04:46:45;;;;;;;15.73;7.77;;;5.60;84.50;;;;;;5066727;28;20282;-62
2023/03/18 04:49:12;;;;;;;15.27;7.67;;;5.60;84.70;;;;;;5074372;28;20204;-61
2023/03/18 04:51:40;;;;;;;12.67;7.60;;;5.60;84.90;;;;;;5073799;28;20568;-61
2023/03/18 04:54:16;;;;;;;18.67;8.23;;;5.50;84.90;;;;;;5074701;28;20208;-62
2023/03/18 04:56:45;;;;;;;16.27;7.70;;;5.50;85.00;;;;;;5077635;28;20228;-61
2023/03/18 04:59:13;;;;;;;14.57;8.33;;;5.50;85.10;;;;;;5098303;28;20200;-60
2023/03/18 05:01:40;;;;;;;18.07;7.90;;;5.50;85.20;;;;;;5086643;28;20192;-61
2023/03/18 05:04:07;;;;;;;22.63;9.27;;;5.50;85.40;;;;;;5073170;28;20288;-61
2023/03/18 05:06:45;;;;;;;18.00;8.23;;;5.40;85.40;;;;;;5102165;28;20202;-61
2023/03/18 05:09:14;;;;;;;20.57;9.30;;;5.40;85.50;;;;;;5075175;28;20619;-62
2023/03/18 05:11:44;;;;;;;16.80;8.53;;;5.40;85.70;;;;;;5073381;28;20295;-61
2023/03/18 05:14:25;;;;;;;17.70;9.10;;;5.40;85.90;;;;;;5106620;28;20222;-62
2023/03/18 05:16:54;;;;;;;17.93;8.57;;;5.30;85.90;;;;;;5073322;28;20234;-62
2023/03/18 05:19:22;;;;;;;18.37;9.07;;;5.30;86.00;;;;;;5091237;28;20202;-61
2023/03/18 05:22:10;;;;;;;18.40;8.60;;;5.30;86.10;;;;;;5077824;28;20561;-62
2023/03/18 05:24:37;;;;;;;19.33;8.83;;;5.30;86.10;;;;;;5089749;28;20192;-62
2023/03/18 05:27:07;;;;;;;16.53;8.20;;;5.40;86.20;;;;;;5073982;28;20655;-62
2023/03/18 05:29:40;;;;;;;15.70;7.87;;;5.40;86.00;;;;;;5071877;28;20701;-61
2023/03/18 05:32:15;;;;;;;25.80;9.33;;;5.40;86.00;;;;;;5105607;28;20693;-60
2023/03/18 05:34:43;;;;;;;15.10;7.80;;;5.50;86.00;;;;;;5097733;28;20223;-60
2023/03/18 05:37:14;;;;;;;15.90;7.97;;;5.50;85.90;;;;;;5070377;28;20251;-60
2023/03/18 05:39:46;;;;;;;16.63;8.57;;;5.60;85.90;;;;;;5073123;28;20231;-61
2023/03/18 05:42:18;;;;;;;16.10;8.23;;;5.60;85.60;;;;;;5092840;28;20259;-61
2023/03/18 05:44:47;;;;;;;18.77;8.40;;;5.60;85.40;;;;;;5072422;28;20673;-61
2023/03/18 05:47:18;;;;;;;17.37;7.77;;;5.60;85.40;;;;;;5067763;28;20288;-61
2023/03/18 05:50:03;;;;;;;20.07;8.30;;;5.70;85.40;;;;;;5073648;28;20200;-61
2023/03/18 05:52:32;;;;;;;16.03;7.90;;;5.70;85.40;;;;;;5071688;28;20205;-61
2023/03/18 05:55:04;;;;;;;20.20;9.00;;;5.70;85.40;;;;;;5072958;28;20717;-61
2023/03/18 05:57:37;;;;;;;18.63;8.67;;;5.70;85.30;;;;;;5059100;28;20270;-62
2023/03/18 06:00:10;;;;;;;16.27;7.73;;;5.70;85.30;;;;;;5073184;28;20206;-62
2023/03/18 06:02:45;;;;;;;22.47;8.67;;;5.70;85.30;;;;;;5072988;28;20203;-62
2023/03/18 06:05:13;;;;;;;17.73;8.03;;;5.70;85.30;;;;;;5091525;28;20275;-62
2023/03/18 06:07:41;;;;;;;18.07;8.70;;;5.80;85.50;;;;;;5073095;28;20212;-62
2023/03/18 06:10:11;;;;;;;18.70;8.47;;;5.80;85.50;;;;;;5065419;28;20228;-62
2023/03/18 06:12:40;;;;;;;19.97;8.27;;;5.80;85.30;;;;;;5066549;28;20674;-62
2023/03/18 06:15:09;;;;;;;18.23;8.83;;;5.90;85.30;;;;;;5071922;28;20220;-61
2023/03/18 06:17:37;;;;;;;18.20;8.50;;;5.90;85.10;;;;;;5068897;28;20223;-61
2023/03/18 06:20:07;;;;;;;14.90;7.63;;;5.90;85.30;;;;;;5072898;28;20252;-61
2023/03/18 06:22:34;;;;;;;16.30;7.87;;;5.90;85.40;;;;;;5088656;28;20200;-61
2023/03/18 06:25:02;;;;;;;16.27;8.00;;;6.00;85.40;;;;;;5088180;28;20204;-60
2023/03/18 06:27:30;;;;;;;18.13;8.30;;;6.00;85.30;;;;;;5103692;28;20573;-61
2023/03/18 06:30:03;;;;;;;15.97;7.77;;;6.00;85.20;;;;;;5072641;28;20682;-61
2023/03/18 06:32:32;;;;;;;16.43;8.27;;;6.10;85.10;;;;;;5072834;28;20205;-62
2023/03/18 06:35:00;;;;;;;16.10;7.87;;;6.10;85.00;;;;;;5067619;28;20197;-62
2023/03/18 06:37:28;;;;;;;22.53;9.73;;;6.10;84.70;;;;;;5076362;28;20592;-62
2023/03/18 06:39:55;;;;;;;19.27;9.53;;;6.10;84.70;;;;;;5091635;28;20221;-62
2023/03/18 06:42:23;;;;;;;15.70;7.93;;;6.10;84.70;;;;;;5069240;28;20202;-62
2023/03/18 06:45:04;;;;;;;16.90;7.97;;;6.20;84.70;;;;;;5069787;28;20289;-62
2023/03/18 06:47:45;;;;;;;18.90;8.77;;;6.20;84.70;;;;;;5084891;28;20201;-62
2023/03/18 06:50:14;;;;;;;19.40;8.63;;;6.20;84.60;;;;;;5069531;28;20201;-62
2023/03/18 06:52:42;;;;;;;15.63;7.63;;;6.30;84.70;;;;;;5071731;28;20608;-62
2023/03/18 06:55:13;;;;;;;20.90;9.20;;;6.30;84.60;;;;;;5089786;28;20228;-62
2023/03/18 06:57:44;;;;;;;15.57;7.53;;;6.30;84.40;;;;;;5066759;28;20773;-61
2023/03/18 07:00:17;;;;;;;19.20;8.90;;;6.30;84.60;;;;;;5071665;28;20208;-61
2023/03/18 07:02:44;;;;;;;17.90;7.90;;;6.30;84.60;;;;;;5086023;28;20532;-60
2023/03/18 07:05:15;;;;;;;16.03;7.50;;;6.40;84.40;;;;;;5101023;27;20203;-61
2023/03/18 07:07:44;;;;;;;16.97;7.73;;;6.40;84.40;;;;;;5067913;28;20191;-62
2023/03/18 07:10:19;;;;;;;18.77;7.77;;;6.40;84.20;;;;;;5070904;28;20893;-61
2023/03/18 07:12:47;;;;;;;18.40;8.03;;;6.40;84.40;;;;;;5070465;28;20342;-60
2023/03/18 07:15:16;;;;;;;19.07;8.07;;;6.40;84.30;;;;;;5069864;28;20195;-60
2023/03/18 07:17:44;;;;;;;13.80;7.40;;;6.50;84.40;;;;;;5089536;28;20311;-61
2023/03/18 07:20:14;;;;;;;13.80;7.03;;;6.50;84.30;;;;;;5069405;28;20209;-60
2023/03/18 07:22:42;;;;;;;15.90;7.90;;;6.60;84.00;;;;;;5080789;28;20288;-61
2023/03/18 07:25:10;;;;;;;19.47;8.07;;;6.60;83.70;;;;;;5084084;28;20189;-62
2023/03/18 07:27:37;;;;;;;17.03;7.33;;;6.70;83.70;;;;;;5069629;28;20190;-61
2023/03/18 07:30:08;;;;;;;14.67;6.37;;;6.70;83.60;;;;;;5088988;28;20192;-61
2023/03/18 07:32:37;;;;;;;14.80;6.93;;;6.70;83.60;;;;;;5089528;28;20188;-61
2023/03/18 07:35:05;;;;;;;18.03;7.30;;;6.80;83.70;;;;;;5087123;28;20283;-62
2023/03/18 07:37:32;;;;;;;13.93;6.43;;;6.80;83.20;;;;;;5090157;28;20214;-62
2023/03/18 07:39:59;;;;;;;14.00;6.93;;;6.80;83.20;;;;;;5089895;28;20263;-61
2023/03/18 08:00:24;;;;;;;15.23;7.40;;;6.70;81.40;;;;;;5127196;27;21135;-62
2023/03/18 08:02:51;;;;;;;14.40;7.20;;;7.40;82.50;;;;;;5128159;28;20228;-63
2023/03/18 08:05:20;;;;;;;16.53;7.57;;;7.50;82.20;;;;;;5127122;27;20630;-63
2023/03/18 08:07:48;;;;;;;15.50;6.90;;;7.50;82.80;;;;;;5126134;27;20198;-63
2023/03/18 08:10:16;;;;;;;11.80;6.83;;;7.50;81.90;;;;;;5127547;27;20554;-63
2023/03/18 08:12:43;;;;;;;18.43;7.43;;;7.50;81.60;;;;;;5127100;27;20184;-63
2023/03/18 08:15:11;;;;;;;17.30;7.50;;;7.50;81.60;;;;;;5127661;27;20263;-63
2023/03/18 08:17:40;;;;;;;19.43;6.70;;;7.50;81.50;;;;;;5125778;28;20276;-63
2023/03/18 08:20:08;;;;;;;13.33;7.40;;;7.50;81.60;;;;;;5127530;28;20261;-63
2023/03/18 08:22:35;;;;;;;15.80;7.23;;;7.50;82.00;;;;;;5124413;28;20207;-63
2023/03/18 08:25:02;;;;;;;14.00;7.37;;;7.60;82.00;;;;;;5126329;28;20547;-62
2023/03/18 08:27:29;;;;;;;13.90;7.73;;;7.60;82.10;;;;;;5125764;28;20620;-63
2023/03/18 08:29:57;;;;;;;15.60;8.07;;;7.70;82.00;;;;;;5127524;27;20206;-62
2023/03/18 08:32:24;;;;;;;20.10;8.57;;;7.70;82.00;;;;;;5127259;27;20708;-64
2023/03/18 08:34:53;;;;;;;17.30;7.03;;;7.80;82.10;;;;;;5127035;27;20250;-64
2023/03/18 08:37:20;;;;;;;13.53;6.67;;;7.80;81.80;;;;;;5125529;28;20197;-64
2023/03/18 08:39:47;;;;;;;14.93;6.87;;;7.80;81.50;;;;;;5127447;27;20195;-63
2023/03/18 08:42:14;;;;;;;16.37;7.83;;;7.90;81.80;;;;;;5125072;28;20260;-63
2023/03/18 08:44:42;;;;;;;12.40;7.47;;;8.00;81.80;;;;;;5125994;28;20206;-63
2023/03/18 08:47:09;;;;;;;16.17;7.43;;;8.10;81.50;;;;;;5126186;27;20264;-63
2023/03/18 08:49:37;;;;;;;14.17;7.37;;;8.20;81.10;;;;;;5124529;28;20207;-62
2023/03/18 08:52:06;;;;;;;14.60;6.97;;;8.40;80.90;;;;;;5115770;27;20211;-63
2023/03/18 08:54:34;;;;;;;15.60;7.57;;;8.50;80.20;;;;;;5106473;28;20192;-63
2023/03/18 08:57:01;;;;;;;12.03;6.40;;;8.70;79.40;;;;;;5105107;28;20249;-64
2023/03/18 08:59:28;;;;;;;15.33;6.43;;;9.00;79.20;;;;;;5102857;28;20248;-63
2023/03/18 09:01:56;;;;;;;11.20;6.17;;;9.20;77.50;;;;;;5092696;28;20283;-63
2023/03/18 09:04:24;;;;;;;10.17;6.03;;;9.40;76.60;;;;;;5092340;28;20189;-63
2023/03/18 09:06:51;;;;;;;11.43;6.47;;;9.60;76.20;;;;;;5090720;28;20226;-63
2023/03/18 09:09:20;;;;;;;15.07;7.17;;;9.90;76.40;;;;;;5092626;28;20205;-62
2023/03/18 09:11:50;;;;;;;13.33;6.80;;;10.10;75.00;;;;;;5092350;28;20548;-62
2023/03/18 09:14:17;;;;;;;16.17;7.13;;;10.20;74.40;;;;;;5091715;28;20192;-62
2023/03/18 09:16:44;;;;;;;13.93;7.27;;;10.30;74.00;;;;;;5092102;28;20195;-61
2023/03/18 09:19:12;;;;;;;14.17;7.27;;;10.40;74.10;;;;;;5091624;28;20198;-63
2023/03/18 09:21:39;;;;;;;12.97;6.93;;;10.60;72.00;;;;;;5088859;28;20208;-62
2023/03/18 09:24:07;;;;;;;13.30;7.17;;;10.60;69.80;;;;;;5092344;28;20223;-62
2023/03/18 09:26:35;;;;;;;12.87;7.00;;;10.70;70.30;;;;;;5091933;28;20344;-62
2023/03/18 09:29:02;;;;;;;14.03;6.83;;;10.70;70.60;;;;;;5091967;28;20212;-63
2023/03/18 09:31:29;;;;;;;14.27;7.30;;;10.60;69.60;;;;;;5110592;28;20201;-62
2023/03/18 09:33:57;;;;;;;10.23;5.97;;;10.50;69.00;;;;;;5112029;28;20194;-62
2023/03/18 09:36:24;;;;;;;11.90;6.83;;;10.40;69.60;;;;;;5111682;28;20669;-65
2023/03/18 09:38:51;;;;;;;14.67;7.37;;;10.30;70.10;;;;;;5110536;28;20204;-63
2023/03/18 09:41:31;;;;;;;16.47;7.53;;;10.30;70.50;;;;;;5112420;28;20202;-63
2023/03/18 09:44:09;;;;;;;15.93;7.33;;;10.20;70.80;;;;;;5112004;28;20195;-62
2023/03/18 09:46:54;;;;;;;15.87;7.93;;;10.20;70.80;;;;;;5111949;28;20194;-62
2023/03/18 09:49:38;;;;;;;16.90;8.27;;;10.20;70.80;;;;;;5110225;28;20218;-62
2023/03/18 09:52:17;;;;;;;20.13;7.90;;;10.20;70.60;;;;;;5110256;28;20183;-62
2023/03/18 09:54:50;;;;;;;16.37;7.50;;;10.20;70.30;;;;;;5112440;28;20180;-62
2023/03/18 09:57:22;;;;;;;19.30;7.97;;;10.20;70.70;;;;;;5111534;28;20183;-63
2023/03/18 09:59:54;;;;;;;13.97;7.10;;;10.30;70.40;;;;;;5111921;28;20300;-62
2023/03/18 10:02:27;;;;;;;15.10;7.20;;;10.30;69.30;;;;;;5107510;28;20189;-63
2023/03/18 10:04:58;;;;;;;14.33;6.77;;;10.30;68.40;;;;;;5091815;28;20187;-63
2023/03/18 10:07:31;;;;;;;15.20;7.40;;;10.30;68.40;;;;;;5088416;28;20204;-63
2023/03/18 10:10:04;;;;;;;22.30;8.10;;;10.30;67.60;;;;;;5108215;28;20318;-64
2023/03/18 10:12:34;;;;;;;16.30;7.33;;;10.30;67.50;;;;;;5109423;28;20265;-62
2023/03/18 10:15:12;;;;;;;17.40;6.57;;;10.30;67.80;;;;;;5111596;28;20212;-62
2023/03/18 10:17:42;;;;;;;16.80;7.63;;;10.30;68.50;;;;;;5109837;28;20253;-62
2023/03/18 10:20:17;;;;;;;15.50;7.93;;;10.20;69.20;;;;;;5111135;28;20192;-62
2023/03/18 10:22:54;;;;;;;14.43;7.70;;;10.20;69.20;;;;;;5109017;28;20219;-62
2023/03/18 10:25:28;;;;;;;15.40;6.60;;;10.30;69.20;;;;;;5111472;28;20646;-63
2023/03/18 10:28:08;;;;;;;14.83;7.50;;;10.30;68.30;;;;;;5110793;28;20187;-64
2023/03/18 10:30:48;;;;;;;13.67;7.03;;;10.30;68.30;;;;;;5111843;28;20677;-64
2023/03/18 10:33:22;;;;;;;12.27;6.87;;;10.30;68.20;;;;;;5110774;28;20240;-64
2023/03/18 10:35:54;;;;;;;14.53;6.50;;;10.40;67.90;;;;;;5103650;28;20180;-63
2023/03/18 10:38:25;;;;;;;12.50;7.13;;;10.30;67.20;;;;;;5109548;28;20175;-63
2023/03/18 10:40:54;;;;;;;13.93;6.70;;;10.30;68.20;;;;;;5111593;28;20551;-64
2023/03/18 10:43:24;;;;;;;11.80;7.27;;;10.30;68.90;;;;;;5110042;28;20199;-63
2023/03/18 10:46:00;;;;;;;11.57;6.57;;;10.30;69.40;;;;;;5111270;28;20271;-65
2023/03/18 10:48:31;;;;;;;11.20;6.90;;;10.30;70.20;;;;;;5108753;28;20198;-64
2023/03/18 10:51:08;;;;;;;11.20;6.20;;;10.30;70.30;;;;;;5109976;28;20246;-64
2023/03/18 10:53:40;;;;;;;14.90;7.23;;;10.30;70.70;;;;;;5108667;28;20188;-64
2023/03/18 10:56:09;;;;;;;11.80;6.67;;;10.30;70.30;;;;;;5109668;28;20199;-63
2023/03/18 10:58:38;;;;;;;13.73;7.37;;;10.40;69.10;;;;;;5109966;28;20229;-64
2023/03/18 11:03:56;;;;;;;15.57;7.27;;;10.50;69.20;;;;;;5107189;28;20210;-64
2023/03/18 11:06:30;;;;;;;15.70;8.07;;;10.60;69.20;;;;;;5109676;28;20198;-64
2023/03/18 11:09:05;;;;;;;12.70;7.27;;;10.60;68.80;;;;;;5105108;28;20552;-65
2023/03/18 11:11:34;;;;;;;9.40;6.73;;;10.60;68.60;;;;;;5111144;28;20187;-64
2023/03/18 11:14:03;;;;;;;12.13;6.93;;;10.70;67.70;;;;;;5110065;28;20202;-64
2023/03/18 11:16:38;;;;;;;12.43;6.93;;;10.70;66.40;;;;;;5108758;28;20534;-63
2023/03/18 11:19:30;;;;;;;13.97;7.13;;;10.70;66.20;;;;;;5110115;28;20734;-63
2023/03/18 11:22:17;;;;;;;16.27;8.13;;;10.70;66.30;;;;;;5109096;28;20728;-64
2023/03/18 11:24:44;;;;;;;11.50;6.43;;;10.80;66.20;;;;;;5110608;28;20229;-63
2023/03/18 11:27:33;;;;;;;18.27;8.37;;;10.70;66.20;;;;;;5109433;28;20752;-64
2023/03/18 11:30:06;;;;;;;16.97;8.27;;;10.70;66.30;;;;;;5109189;28;20207;-64
2023/03/18 11:32:35;;;;;;;15.10;7.40;;;10.80;66.40;;;;;;5109686;28;20265;-66
2023/03/18 11:35:04;;;;;;;14.63;7.80;;;10.90;66.60;;;;;;5109869;27;20575;-65
2023/03/18 11:37:33;;;;;;;15.50;7.70;;;11.00;66.80;;;;;;5107266;28;20688;-64
2023/03/18 11:40:17;;;;;;;13.33;7.17;;;11.00;66.60;;;;;;5110472;28;20217;-64
2023/03/18 11:42:46;;;;;;;16.00;7.17;;;11.00;66.70;;;;;;5105930;28;20629;-64
2023/03/18 11:45:31;;;;;;;16.73;7.33;;;11.10;67.40;;;;;;5110219;28;20203;-64
2023/03/18 11:48:01;;;;;;;11.80;7.00;;;11.00;67.10;;;;;;5090402;28;20273;-64
2023/03/18 11:50:40;;;;;;;15.40;7.83;;;11.10;67.50;;;;;;5091206;28;20212;-63
2023/03/18 11:53:13;;;;;;;15.83;8.00;;;11.10;67.70;;;;;;5108050;28;20183;-63
2023/03/18 11:55:47;;;;;;;13.80;7.50;;;11.20;68.10;;;;;;5110252;28;20199;-63
2023/03/18 11:58:47;;;;;;;19.93;8.00;;;11.30;68.40;;;;;;5107334;28;21820;-64
2023/03/18 12:01:22;;;;;;;18.53;8.53;;;11.30;67.50;;;;;;5108807;28;20196;-63
2023/03/18 12:04:26;;;;;;;20.90;8.07;;;11.30;66.50;;;;;;5109306;28;20565;-63
2023/03/18 12:07:04;;;;;;;17.73;8.37;;;11.20;66.40;;;;;;5077619;28;20210;-63
2023/03/18 12:09:41;;;;;;;14.87;8.03;;;11.20;66.20;;;;;;5088287;28;20262;-63
2023/03/18 12:12:27;;;;;;;16.67;8.33;;;11.40;66.60;;;;;;5089025;28;20173;-63
2023/03/18 12:15:00;;;;;;;15.17;7.67;;;11.50;66.30;;;;;;5085226;28;20560;-64
2023/03/18 12:17:41;;;;;;;17.50;7.47;;;11.70;65.70;;;;;;5107767;28;20275;-64
2023/03/18 12:20:41;;;;;;;14.40;7.30;;;11.80;65.70;;;;;;5097959;28;20176;-63
2023/03/18 12:23:21;;;;;;;16.17;7.23;;;11.80;65.90;;;;;;5091479;28;20200;-64
2023/03/18 12:26:00;;;;;;;15.20;7.10;;;11.90;66.50;;;;;;5110116;28;20191;-63
2023/03/18 12:28:56;;;;;;;15.23;7.27;;;11.90;65.60;;;;;;5103304;28;20248;-63
2023/03/18 12:31:44;;;;;;;13.67;7.30;;;12.00;64.70;;;;;;5100129;28;20207;-63
2023/03/18 12:34:21;;;;;;;13.13;7.10;;;12.20;64.20;;;;;;5091214;28;20179;-63
2023/03/18 12:37:07;;;;;;;14.40;6.83;;;12.30;63.30;;;;;;5110230;28;20225;-63
2023/03/18 12:40:00;;;;;;;11.13;6.40;;;12.40;63.50;;;;;;5113858;28;20183;-63
2023/03/18 12:42:44;;;;;;;13.00;6.97;;;12.50;63.60;;;;;;5112807;28;20202;-64
2023/03/18 12:45:15;;;;;;;18.87;7.83;;;12.60;63.60;;;;;;5111226;28;20660;-62
2023/03/18 12:47:49;;;;;;;14.13;7.13;;;12.70;63.70;;;;;;5106817;28;20301;-63
2023/03/18 12:50:19;;;;;;;13.60;7.23;;;12.70;63.60;;;;;;5093518;28;20229;-64
2023/03/18 12:52:53;;;;;;;13.20;8.07;;;12.70;63.40;;;;;;5098058;28;20644;-65
2023/03/18 12:55:25;;;;;;;12.93;7.47;;;12.80;63.70;;;;;;5102739;28;20572;-65
2023/03/18 12:57:58;;;;;;;16.40;8.17;;;12.80;63.70;;;;;;5112395;28;20549;-65
2023/03/18 13:00:30;;;;;;;13.60;7.20;;;12.80;63.60;;;;;;5110502;28;20228;-66
2023/03/18 13:03:04;;;;;;;12.70;7.03;;;12.80;63.60;;;;;;5112980;28;20231;-66
2023/03/18 13:05:40;;;;;;;11.67;6.77;;;12.80;63.30;;;;;;5105723;28;20340;-66
2023/03/18 13:08:51;;;;;;;13.80;7.23;;;12.90;63.30;;;;;;5103210;28;20180;-65
2023/03/18 13:11:43;;;;;;;19.37;8.67;;;12.90;63.20;;;;;;5070753;28;20214;-65
2023/03/18 13:14:20;;;;;;;20.00;9.60;;;12.90;63.20;;;;;;5111746;28;20184;-65
2023/03/18 13:16:49;;;;;;;16.97;8.00;;;12.80;63.20;;;;;;5111666;28;20287;-66
2023/03/18 13:19:17;;;;;;;11.60;6.53;;;12.70;63.40;;;;;;5110451;28;20613;-65
2023/03/18 13:21:50;;;;;;;12.53;7.13;;;12.60;63.60;;;;;;5108409;28;20235;-65
2023/03/18 13:24:52;;;;;;;11.27;6.30;;;12.60;63.70;;;;;;5106769;28;20181;-66